createdAt,value
2023-04-07T00:00:56.822Z,10.55
2023-04-07T00:01:58.913Z,10.23
2023-04-07T00:03:02.711Z,9.25
2023-04-07T00:04:05.224Z,10.10
2023-04-07T00:05:07.763Z,9.50
2023-04-07T00:06:10.257Z,10.35
2023-04-07T00:07:12.587Z,10.18
2023-04-07T00:08:15.054Z,10.95
2023-04-07T00:09:16.951Z,10.15
2023-04-07T00:10:18.989Z,10.10
2023-04-07T00:11:21.029Z,9.25
2023-04-07T00:12:23.325Z,10.45
2023-04-07T00:13:25.419Z,10.18
2023-04-07T00:14:27.438Z,10.27
2023-04-07T00:15:29.454Z,10.27
2023-04-07T00:16:31.733Z,9.15
2023-04-07T00:17:33.773Z,10.60
2023-04-07T00:18:35.823Z,9.05
2023-04-07T00:19:37.884Z,9.73
2023-04-07T00:20:41.112Z,9.75
2023-04-07T00:22:45.686Z,9.35
2023-04-07T00:23:47.964Z,8.80
2023-04-07T00:24:50.186Z,9.07
2023-04-07T00:25:52.268Z,9.57
2023-04-07T00:26:54.285Z,9.65
2023-04-07T00:27:56.422Z,9.27
2023-04-07T00:28:59.851Z,9.50
2023-04-07T00:30:02.383Z,9.82
2023-04-07T00:31:04.407Z,9.88
2023-04-07T00:32:06.417Z,9.55
2023-04-07T00:33:09.705Z,9.70
2023-04-07T00:34:12.443Z,8.80
2023-04-07T00:35:17.134Z,9.48
2023-04-07T00:36:19.183Z,9.25
2023-04-07T00:37:21.798Z,9.25
2023-04-07T00:38:23.832Z,8.98
2023-04-07T00:39:27.749Z,10.18
2023-04-07T00:40:29.683Z,8.25
2023-04-07T00:41:34.692Z,9.82
2023-04-07T00:42:37.360Z,10.13
2023-04-07T00:43:39.596Z,10.95
2023-04-07T00:44:41.512Z,9.25
2023-04-07T00:45:43.886Z,9.60
2023-04-07T00:46:48.161Z,9.82
2023-04-07T00:47:50.623Z,9.57
2023-04-07T00:48:52.768Z,8.85
2023-04-07T00:49:55.112Z,8.80
2023-04-07T00:50:57.134Z,9.18
2023-04-07T00:51:59.152Z,10.25
2023-04-07T00:53:02.540Z,9.68
2023-04-07T00:54:05.251Z,9.55
2023-04-07T00:55:07.467Z,9.40
2023-04-07T00:56:09.453Z,9.70
2023-04-07T00:57:11.484Z,9.38
2023-04-07T00:58:13.778Z,9.55
2023-04-07T00:59:16.290Z,9.25
2023-04-07T01:00:18.463Z,9.02
2023-04-07T01:01:25.089Z,9.15
2023-04-07T01:02:36.824Z,9.25
2023-04-07T01:03:52.763Z,9.63
2023-04-07T01:05:21.532Z,8.77
2023-04-07T01:06:27.015Z,9.43
2023-04-07T01:07:37.822Z,9.23
2023-04-07T01:09:01.646Z,8.40
2023-04-07T01:10:06.154Z,8.98
2023-04-07T01:11:20.279Z,9.40
2023-04-07T01:12:52.949Z,9.70
2023-04-07T01:13:55.601Z,7.80
2023-04-07T01:16:05.414Z,8.75
2023-04-07T01:17:10.269Z,9.40
2023-04-07T01:19:47.920Z,9.35
2023-04-07T01:20:56.669Z,10.18
2023-04-07T01:23:07.174Z,8.57
2023-04-07T01:24:42.678Z,9.23
2023-04-07T01:25:47.976Z,8.60
2023-04-07T01:26:51.743Z,8.25
2023-04-07T01:28:03.942Z,9.02
2023-04-07T01:29:24.778Z,8.57
2023-04-07T01:30:31.142Z,7.88
2023-04-07T01:31:34.645Z,9.48
2023-04-07T01:32:37.709Z,8.32
2023-04-07T01:33:44.072Z,8.20
2023-04-07T01:34:50.049Z,9.48
2023-04-07T01:35:53.892Z,9.43
2023-04-07T01:36:58.045Z,8.93
2023-04-07T01:38:00.900Z,8.63
2023-04-07T01:40:08.146Z,9.18
2023-04-07T01:41:11.032Z,8.40
2023-04-07T01:43:16.768Z,8.32
2023-04-07T01:44:20.924Z,9.95
2023-04-07T01:45:23.529Z,9.38
2023-04-07T01:46:25.627Z,8.88
2023-04-07T01:47:31.397Z,9.77
2023-04-07T01:48:36.208Z,9.95
2023-04-07T01:49:38.457Z,8.30
2023-04-07T01:50:40.778Z,9.27
2023-04-07T01:51:43.324Z,8.25
2023-04-07T01:53:49.923Z,9.40
2023-04-07T01:54:52.216Z,9.77
2023-04-07T01:55:54.961Z,8.68
2023-04-07T01:56:57.204Z,7.88
2023-04-07T01:57:59.156Z,8.55
2023-04-07T01:59:01.132Z,9.35
2023-04-07T02:00:03.427Z,9.43
2023-04-07T02:01:06.087Z,9.90
2023-04-07T02:02:08.794Z,9.52
2023-04-07T02:03:22.848Z,8.55
2023-04-07T02:04:32.655Z,9.23
2023-04-07T02:05:36.281Z,8.50
2023-04-07T02:06:47.066Z,8.65
2023-04-07T02:08:08.413Z,8.63
2023-04-07T02:09:11.946Z,8.40
2023-04-07T02:10:16.569Z,8.82
2023-04-07T02:11:22.296Z,9.20
2023-04-07T02:12:26.552Z,9.07
2023-04-07T02:13:30.079Z,9.10
2023-04-07T02:14:33.573Z,8.93
2023-04-07T02:15:37.685Z,8.45
2023-04-07T02:16:41.991Z,8.43
2023-04-07T02:17:49.000Z,8.95
2023-04-07T02:18:51.765Z,8.25
2023-04-07T02:19:54.357Z,8.50
2023-04-07T02:20:56.492Z,9.68
2023-04-07T02:22:01.608Z,8.98
2023-04-07T02:23:04.135Z,8.23
2023-04-07T02:24:07.096Z,9.10
2023-04-07T02:25:41.531Z,8.80
2023-04-07T02:26:43.575Z,9.20
2023-04-07T02:27:45.870Z,9.75
2023-04-07T02:28:47.815Z,8.55
2023-04-07T02:29:49.784Z,8.88
2023-04-07T02:30:51.685Z,9.07
2023-04-07T02:31:53.985Z,8.77
2023-04-07T02:32:56.452Z,9.20
2023-04-07T02:33:58.357Z,8.93
2023-04-07T02:35:00.756Z,9.05
2023-04-07T02:36:03.112Z,8.27
2023-04-07T02:37:05.039Z,8.27
2023-04-07T02:38:07.020Z,8.82
2023-04-07T02:39:10.069Z,8.90
2023-04-07T02:40:12.786Z,8.52
2023-04-07T02:41:14.717Z,8.55
2023-04-07T02:42:16.613Z,8.73
2023-04-07T02:43:21.012Z,8.35
2023-04-07T02:44:23.264Z,8.98
2023-04-07T02:45:25.212Z,8.57
2023-04-07T02:46:27.201Z,10.00
2023-04-07T02:47:29.263Z,9.13
2023-04-07T02:48:31.551Z,8.52
2023-04-07T02:49:33.403Z,7.68
2023-04-07T02:50:35.316Z,8.55
2023-04-07T02:51:37.269Z,8.32
2023-04-07T02:52:39.504Z,8.43
2023-04-07T02:53:41.461Z,9.02
2023-04-07T02:54:44.116Z,9.02
2023-04-07T02:55:46.403Z,9.73
2023-04-07T02:56:48.608Z,8.73
2023-04-07T02:57:50.622Z,8.95
2023-04-07T02:58:52.636Z,8.30
2023-04-07T02:59:56.332Z,9.27
2023-04-07T03:00:58.626Z,9.10
2023-04-07T03:02:00.886Z,8.77
2023-04-07T03:03:03.111Z,9.00
2023-04-07T03:04:05.494Z,9.13
2023-04-07T03:05:08.455Z,8.50
2023-04-07T03:06:10.777Z,9.38
2023-04-07T03:07:12.764Z,9.20
2023-04-07T03:08:14.769Z,8.90
2023-04-07T03:09:17.051Z,9.07
2023-04-07T03:10:19.177Z,8.07
2023-04-07T03:11:21.197Z,8.68
2023-04-07T03:12:23.227Z,8.27
2023-04-07T03:13:25.514Z,8.98
2023-04-07T03:14:27.584Z,7.85
2023-04-07T03:15:29.650Z,8.82
2023-04-07T03:16:32.272Z,8.02
2023-04-07T03:18:36.433Z,7.85
2023-04-07T03:19:38.410Z,8.30
2023-04-07T03:20:42.253Z,8.38
2023-04-07T03:21:44.686Z,8.13
2023-04-07T03:22:47.592Z,9.05
2023-04-07T03:23:49.612Z,8.70
2023-04-07T03:24:51.569Z,7.68
2023-04-07T03:25:53.833Z,8.20
2023-04-07T03:26:56.320Z,7.78
2023-04-07T03:27:58.282Z,9.50
2023-04-07T03:29:00.569Z,8.98
2023-04-07T03:30:03.232Z,7.68
2023-04-07T03:31:05.379Z,7.72
2023-04-07T03:32:07.422Z,8.15
2023-04-07T03:33:09.600Z,8.15
2023-04-07T03:34:12.014Z,8.82
2023-04-07T03:35:14.023Z,8.35
2023-04-07T03:36:16.308Z,7.90
2023-04-07T03:37:18.313Z,7.90
2023-04-07T03:38:21.746Z,9.05
2023-04-07T03:39:23.844Z,8.55
2023-04-07T03:40:25.894Z,8.40
2023-04-07T03:41:27.876Z,7.97
2023-04-07T03:42:30.110Z,8.27
2023-04-07T03:43:32.452Z,8.55
2023-04-07T03:44:34.397Z,8.65
2023-04-07T03:45:36.364Z,7.88
2023-04-07T03:46:38.610Z,8.85
2023-04-07T03:47:40.602Z,8.20
2023-04-07T03:48:42.593Z,8.50
2023-04-07T03:49:44.601Z,7.65
2023-04-07T03:50:46.840Z,8.48
2023-04-07T03:51:48.777Z,8.68
2023-04-07T03:52:50.807Z,8.73
2023-04-07T03:53:53.062Z,8.43
2023-04-07T03:54:55.493Z,9.63
2023-04-07T03:55:57.416Z,8.65
2023-04-07T03:56:59.379Z,9.10
2023-04-07T03:58:01.521Z,9.07
2023-04-07T03:59:03.866Z,10.82
2023-04-07T04:00:06.561Z,10.18
2023-04-07T04:01:09.228Z,8.57
2023-04-07T04:02:11.626Z,9.93
2023-04-07T04:03:14.226Z,9.25
2023-04-07T04:04:16.430Z,8.18
2023-04-07T04:05:18.703Z,8.98
2023-04-07T04:06:20.702Z,9.35
2023-04-07T04:07:22.974Z,8.73
2023-04-07T04:08:25.000Z,10.43
2023-04-07T04:09:26.914Z,9.68
2023-04-07T04:10:28.949Z,9.70
2023-04-07T04:11:31.864Z,9.23
2023-04-07T04:12:33.833Z,9.45
2023-04-07T04:13:35.796Z,9.65
2023-04-07T04:14:37.820Z,9.70
2023-04-07T04:15:40.169Z,9.10
2023-04-07T04:16:42.161Z,9.60
2023-04-07T04:17:44.244Z,9.15
2023-04-07T04:18:46.392Z,10.68
2023-04-07T04:19:48.583Z,10.48
2023-04-07T04:20:50.827Z,9.80
2023-04-07T04:21:52.771Z,9.30
2023-04-07T04:22:54.753Z,8.48
2023-04-07T04:23:57.157Z,10.38
2023-04-07T04:24:59.903Z,9.85
2023-04-07T04:26:04.055Z,9.40
2023-04-07T04:27:06.093Z,9.32
2023-04-07T04:28:08.370Z,8.77
2023-04-07T04:29:10.429Z,8.98
2023-04-07T04:30:12.535Z,9.75
2023-04-07T04:31:14.506Z,10.07
2023-04-07T04:32:18.037Z,9.25
2023-04-07T04:33:20.495Z,8.77
2023-04-07T04:34:22.436Z,9.88
2023-04-07T04:35:24.438Z,8.63
2023-04-07T04:36:27.790Z,8.70
2023-04-07T04:37:29.689Z,9.60
2023-04-07T04:38:33.403Z,9.05
2023-04-07T04:39:35.817Z,9.98
2023-04-07T04:40:38.133Z,9.95
2023-04-07T04:41:40.066Z,10.57
2023-04-07T04:42:41.948Z,9.05
2023-04-07T04:43:44.108Z,9.13
2023-04-07T04:44:46.598Z,9.40
2023-04-07T04:45:48.559Z,8.70
2023-04-07T04:46:51.027Z,9.65
2023-04-07T04:47:53.142Z,8.82
2023-04-07T04:48:55.439Z,9.50
2023-04-07T04:49:57.368Z,8.70
2023-04-07T04:50:59.317Z,8.20
2023-04-07T04:52:01.310Z,9.85
2023-04-07T04:53:03.502Z,9.43
2023-04-07T04:54:06.585Z,9.10
2023-04-07T04:55:08.813Z,8.88
2023-04-07T04:56:10.764Z,10.07
2023-04-07T04:57:13.109Z,9.02
2023-04-07T04:58:15.096Z,9.50
2023-04-07T04:59:17.087Z,10.02
2023-04-07T05:00:19.564Z,9.75
2023-04-07T05:01:21.940Z,8.40
2023-04-07T05:02:24.216Z,8.75
2023-04-07T05:03:28.642Z,9.02
2023-04-07T05:04:30.773Z,8.73
2023-04-07T05:05:33.299Z,9.52
2023-04-07T05:06:35.272Z,9.13
2023-04-07T05:07:37.605Z,8.25
2023-04-07T05:08:39.584Z,9.18
2023-04-07T05:09:41.829Z,9.50
2023-04-07T05:10:44.084Z,8.80
2023-04-07T05:11:46.903Z,8.43
2023-04-07T05:12:48.955Z,8.80
2023-04-07T05:13:51.598Z,7.90
2023-04-07T05:14:53.798Z,9.15
2023-04-07T05:15:55.920Z,8.18
2023-04-07T05:16:57.967Z,8.75
2023-04-07T05:18:00.242Z,10.43
2023-04-07T05:19:02.413Z,9.93
2023-04-07T05:20:04.938Z,9.40
2023-04-07T05:21:06.901Z,9.18
2023-04-07T05:22:09.232Z,7.97
2023-04-07T05:23:11.249Z,8.55
2023-04-07T05:24:13.229Z,9.60
2023-04-07T05:25:15.214Z,9.10
2023-04-07T05:26:17.449Z,8.75
2023-04-07T05:27:19.359Z,7.85
2023-04-07T05:28:21.294Z,7.22
2023-04-07T05:29:23.800Z,8.25
2023-04-07T05:30:26.081Z,8.13
2023-04-07T05:31:27.960Z,8.57
2023-04-07T05:32:29.977Z,8.50
2023-04-07T05:33:32.114Z,8.15
2023-04-07T05:34:34.371Z,8.15
2023-04-07T05:35:36.430Z,8.60
2023-04-07T05:36:38.432Z,9.05
2023-04-07T05:37:40.884Z,9.23
2023-04-07T05:38:43.595Z,8.40
2023-04-07T05:39:45.566Z,9.13
2023-04-07T05:40:47.683Z,7.78
2023-04-07T05:41:49.594Z,8.57
2023-04-07T05:42:51.881Z,8.18
2023-04-07T05:43:53.886Z,8.50
2023-04-07T05:44:56.515Z,8.32
2023-04-07T05:45:58.545Z,8.73
2023-04-07T05:47:01.401Z,7.72
2023-04-07T05:48:03.515Z,8.52
2023-04-07T05:49:19.028Z,9.18
2023-04-07T05:50:22.351Z,8.57
2023-04-07T05:51:24.720Z,8.57
2023-04-07T05:52:26.797Z,8.23
2023-04-07T05:53:29.247Z,8.95
2023-04-07T05:54:31.159Z,7.55
2023-04-07T05:55:33.464Z,8.15
2023-04-07T05:56:35.414Z,8.65
2023-04-07T05:57:37.348Z,8.63
2023-04-07T05:58:39.305Z,7.95
2023-04-07T05:59:41.574Z,8.23
2023-04-07T06:00:43.465Z,8.48
2023-04-07T06:01:45.622Z,8.20
2023-04-07T06:02:47.739Z,8.48
2023-04-07T06:03:50.279Z,8.45
2023-04-07T06:04:52.417Z,7.55
2023-04-07T06:05:54.323Z,7.75
2023-04-07T06:06:56.466Z,7.38
2023-04-07T06:07:58.739Z,7.85
2023-04-07T06:09:00.992Z,7.70
2023-04-07T06:10:02.925Z,8.02
2023-04-07T06:11:04.940Z,8.70
2023-04-07T06:12:07.354Z,9.32
2023-04-07T06:13:09.265Z,8.18
2023-04-07T06:14:11.186Z,7.65
2023-04-07T06:15:13.095Z,9.35
2023-04-07T06:16:16.815Z,9.75
2023-04-07T06:17:20.234Z,8.93
2023-04-07T06:18:22.177Z,9.13
2023-04-07T06:19:24.126Z,8.80
2023-04-07T06:20:27.928Z,8.05
2023-04-07T06:21:30.827Z,8.52
2023-04-07T06:23:34.744Z,8.23
2023-04-07T06:24:37.122Z,8.52
2023-04-07T06:25:39.139Z,8.30
2023-04-07T06:26:41.486Z,9.07
2023-04-07T06:27:43.427Z,7.78
2023-04-07T06:28:45.763Z,8.10
2023-04-07T06:29:47.931Z,8.50
2023-04-07T06:30:50.044Z,8.35
2023-04-07T06:31:52.057Z,8.73
2023-04-07T06:32:54.342Z,8.73
2023-04-07T06:33:56.553Z,8.57
2023-04-07T06:34:58.548Z,7.55
2023-04-07T06:36:00.826Z,9.00
2023-04-07T06:37:04.023Z,7.82
2023-04-07T06:39:07.812Z,9.32
2023-04-07T06:40:10.065Z,7.65
2023-04-07T06:41:17.086Z,8.15
2023-04-07T06:42:19.100Z,9.20
2023-04-07T06:43:21.275Z,8.00
2023-04-07T06:44:23.334Z,8.38
2023-04-07T06:45:25.659Z,8.50
2023-04-07T06:46:27.689Z,8.82
2023-04-07T06:47:29.851Z,8.73
2023-04-07T06:48:31.957Z,8.77
2023-04-07T06:49:36.616Z,9.20
2023-04-07T06:50:39.111Z,9.15
2023-04-07T06:51:41.049Z,8.98
2023-04-07T06:52:43.193Z,8.55
2023-04-07T06:53:45.812Z,9.52
2023-04-07T06:54:47.843Z,8.80
2023-04-07T06:55:49.712Z,8.57
2023-04-07T06:56:53.581Z,7.47
2023-04-07T06:57:57.219Z,8.70
2023-04-07T06:58:59.214Z,9.40
2023-04-07T07:00:01.409Z,9.07
2023-04-07T07:01:04.661Z,8.10
2023-04-07T07:02:07.964Z,7.97
2023-04-07T07:03:10.229Z,7.40
2023-04-07T07:04:12.506Z,7.55
2023-04-07T07:05:14.525Z,7.30
2023-04-07T07:06:16.743Z,7.95
2023-04-07T07:07:18.645Z,7.45
2023-04-07T07:08:20.537Z,7.13
2023-04-07T07:09:22.625Z,7.10
2023-04-07T07:10:24.961Z,7.85
2023-04-07T07:11:27.446Z,6.68
2023-04-07T07:12:29.581Z,7.32
2023-04-07T07:13:31.588Z,7.93
2023-04-07T07:14:33.953Z,8.68
2023-04-07T07:15:35.993Z,7.53
2023-04-07T07:16:38.051Z,7.50
2023-04-07T07:17:40.149Z,7.68
2023-04-07T07:18:42.475Z,6.45
2023-04-07T07:19:44.531Z,8.70
2023-04-07T07:20:46.741Z,7.13
2023-04-07T07:21:48.751Z,7.88
2023-04-07T07:22:51.182Z,6.72
2023-04-07T07:23:53.183Z,7.07
2023-04-07T07:24:55.129Z,6.70
2023-04-07T07:25:57.035Z,7.90
2023-04-07T07:26:59.441Z,7.75
2023-04-07T07:28:01.465Z,7.53
2023-04-07T07:29:03.513Z,7.50
2023-04-07T07:30:06.300Z,7.68
2023-04-07T07:31:13.550Z,8.63
2023-04-07T07:32:15.720Z,7.97
2023-04-07T07:33:17.706Z,7.68
2023-04-07T07:34:19.720Z,7.65
2023-04-07T07:35:22.415Z,8.02
2023-04-07T07:36:24.480Z,7.28
2023-04-07T07:37:26.587Z,9.27
2023-04-07T07:38:28.540Z,7.32
2023-04-07T07:39:30.836Z,8.10
2023-04-07T07:40:33.544Z,7.38
2023-04-07T07:41:36.225Z,8.00
2023-04-07T07:42:38.832Z,7.90
2023-04-07T07:44:43.264Z,7.47
2023-04-07T07:45:45.210Z,8.13
2023-04-07T07:46:47.173Z,7.88
2023-04-07T07:47:49.535Z,8.27
2023-04-07T07:48:52.290Z,8.40
2023-04-07T07:49:54.227Z,8.77
2023-04-07T07:50:57.241Z,7.53
2023-04-07T07:52:00.028Z,7.45
2023-04-07T07:53:02.268Z,7.72
2023-04-07T07:54:04.288Z,9.05
2023-04-07T07:55:06.605Z,8.02
2023-04-07T07:56:08.884Z,7.40
2023-04-07T07:57:10.739Z,7.85
2023-04-07T07:58:12.764Z,8.32
2023-04-07T07:59:16.025Z,7.55
2023-04-07T08:00:19.103Z,8.02
2023-04-07T08:01:21.561Z,8.15
2023-04-07T08:02:26.648Z,8.13
2023-04-07T08:03:28.731Z,7.38
2023-04-07T08:04:31.112Z,7.38
2023-04-07T08:05:33.248Z,8.20
2023-04-07T08:06:35.267Z,7.50
2023-04-07T08:07:37.841Z,7.47
2023-04-07T08:09:42.112Z,8.00
2023-04-07T08:10:44.072Z,7.70
2023-04-07T08:11:46.252Z,8.75
2023-04-07T08:12:48.485Z,8.38
2023-04-07T08:13:50.713Z,8.45
2023-04-07T08:14:52.738Z,7.65
2023-04-07T08:15:54.829Z,7.78
2023-04-07T08:16:57.200Z,7.97
2023-04-07T08:18:00.376Z,8.35
2023-04-07T08:19:02.471Z,8.15
2023-04-07T08:20:06.096Z,7.85
2023-04-07T08:21:08.459Z,8.63
2023-04-07T08:22:10.489Z,8.13
2023-04-07T08:23:12.677Z,8.65
2023-04-07T08:24:14.641Z,10.25
2023-04-07T08:25:16.924Z,8.65
2023-04-07T08:26:18.904Z,9.18
2023-04-07T08:27:21.581Z,9.35
2023-04-07T08:28:24.843Z,8.35
2023-04-07T08:29:27.257Z,8.35
2023-04-07T08:30:29.146Z,9.40
2023-04-07T08:31:31.235Z,9.57
2023-04-07T08:32:41.574Z,8.80
2023-04-07T08:33:43.993Z,8.50
2023-04-07T08:34:45.998Z,8.80
2023-04-07T08:35:48.001Z,9.88
2023-04-07T08:36:50.102Z,9.23
2023-04-07T08:37:52.334Z,8.98
2023-04-07T08:38:54.629Z,10.13
2023-04-07T08:39:56.860Z,9.90
2023-04-07T08:41:03.500Z,10.07
2023-04-07T08:42:08.619Z,9.20
2023-04-07T08:43:10.815Z,9.52
2023-04-07T08:44:14.232Z,9.43
2023-04-07T08:45:18.000Z,8.50
2023-04-07T08:46:24.007Z,9.55
2023-04-07T08:47:28.345Z,9.77
2023-04-07T08:48:34.376Z,9.73
2023-04-07T08:49:38.031Z,9.80
2023-04-07T08:50:44.141Z,9.55
2023-04-07T08:51:48.559Z,8.82
2023-04-07T08:52:52.874Z,8.98
2023-04-07T08:54:16.470Z,10.65
2023-04-07T08:55:18.892Z,10.27
2023-04-07T08:56:22.176Z,10.63
2023-04-07T08:57:24.353Z,9.45
2023-04-07T08:58:26.889Z,10.13
2023-04-07T08:59:30.400Z,10.02
2023-04-07T09:00:32.952Z,10.10
2023-04-07T09:01:36.227Z,10.23
2023-04-07T09:02:40.616Z,10.98
2023-04-07T09:03:45.085Z,9.65
2023-04-07T09:04:47.144Z,10.68
2023-04-07T09:05:51.573Z,9.45
2023-04-07T09:06:53.670Z,10.20
2023-04-07T09:07:55.965Z,9.48
2023-04-07T09:08:58.785Z,10.18
2023-04-07T09:11:03.947Z,10.60
2023-04-07T09:12:06.509Z,10.25
2023-04-07T09:13:08.535Z,10.43
2023-04-07T09:16:10.503Z,11.60
2023-04-07T09:17:12.827Z,10.40
2023-04-07T09:18:15.020Z,11.00
2023-04-07T09:19:16.950Z,10.93
2023-04-07T09:20:19.004Z,10.43
2023-04-07T09:21:21.339Z,10.13
2023-04-07T09:22:43.916Z,9.85
2023-04-07T09:23:46.256Z,9.85
2023-04-07T09:24:48.876Z,10.57
2023-04-07T09:25:51.117Z,9.52
2023-04-07T09:27:15.259Z,9.55
2023-04-07T09:28:18.627Z,9.73
2023-04-07T09:29:21.864Z,9.35
2023-04-07T09:30:24.762Z,10.20
2023-04-07T09:31:47.010Z,10.30
2023-04-07T09:32:49.162Z,10.93
2023-04-07T09:33:51.950Z,8.65
2023-04-07T09:35:00.305Z,9.63
2023-04-07T09:36:03.246Z,9.70
2023-04-07T09:38:10.348Z,10.60
2023-04-07T09:39:12.680Z,9.93
2023-04-07T09:40:27.237Z,9.68
2023-04-07T09:41:29.279Z,10.65
2023-04-07T09:42:34.740Z,11.43
2023-04-07T09:43:42.194Z,11.07
2023-04-07T09:44:44.647Z,10.63
2023-04-07T09:45:46.952Z,10.68
2023-04-07T09:46:49.695Z,11.07
2023-04-07T09:47:52.226Z,10.50
2023-04-07T09:49:08.306Z,10.35
2023-04-07T09:50:10.636Z,9.48
2023-04-07T09:51:14.943Z,9.63
2023-04-07T09:52:17.788Z,10.05
2023-04-07T09:53:20.454Z,9.75
2023-04-07T09:54:36.763Z,9.85
2023-04-07T09:55:41.991Z,10.43
2023-04-07T09:56:45.124Z,10.23
2023-04-07T09:57:49.092Z,10.32
2023-04-07T09:58:54.457Z,10.30
2023-04-07T09:59:57.991Z,11.23
2023-04-07T10:01:01.631Z,11.25
2023-04-07T10:02:04.486Z,10.45
2023-04-07T10:03:07.993Z,10.90
2023-04-07T10:04:10.527Z,10.43
2023-04-07T10:05:12.883Z,10.80
2023-04-07T10:06:15.180Z,10.85
2023-04-07T10:07:50.028Z,9.98
2023-04-07T10:08:55.162Z,11.25
2023-04-07T10:09:57.959Z,10.23
2023-04-07T10:12:06.214Z,10.50
2023-04-07T10:13:08.480Z,9.80
2023-04-07T10:14:11.545Z,9.77
2023-04-07T10:15:16.086Z,10.60
2023-04-07T10:16:18.493Z,11.35
2023-04-07T10:17:21.053Z,10.25
2023-04-07T10:18:25.533Z,10.98
2023-04-07T10:19:31.667Z,10.70
2023-04-07T10:20:33.851Z,10.27
2023-04-07T10:21:39.517Z,10.98
2023-04-07T10:22:42.912Z,11.32
2023-04-07T10:23:45.419Z,11.55
2023-04-07T10:24:59.128Z,11.32
2023-04-07T10:26:05.930Z,12.23
2023-04-07T10:27:12.150Z,10.75
2023-04-07T10:28:15.778Z,11.27
2023-04-07T10:29:19.828Z,11.43
2023-04-07T10:30:33.800Z,11.48
2023-04-07T10:31:38.189Z,11.45
2023-04-07T10:32:50.763Z,11.63
2023-04-07T10:33:54.214Z,11.18
2023-04-07T10:34:58.323Z,11.38
2023-04-07T10:36:07.606Z,11.00
2023-04-07T10:37:18.084Z,10.85
2023-04-07T10:38:20.047Z,11.18
2023-04-07T10:39:22.856Z,10.75
2023-04-07T10:40:28.056Z,10.02
2023-04-07T10:41:37.981Z,11.48
2023-04-07T10:42:39.832Z,10.48
2023-04-07T10:43:44.322Z,10.70
2023-04-07T10:44:48.507Z,10.77
2023-04-07T10:45:52.452Z,10.60
2023-04-07T10:47:03.709Z,10.13
2023-04-07T10:48:06.004Z,12.90
2023-04-07T10:49:10.357Z,9.95
2023-04-07T10:50:23.053Z,9.95
2023-04-07T10:51:25.056Z,10.65
2023-04-07T10:52:27.328Z,11.00
2023-04-07T10:53:29.282Z,10.20
2023-04-07T10:54:31.779Z,10.43
2023-04-07T10:55:40.245Z,10.80
2023-04-07T10:57:04.289Z,10.93
2023-04-07T10:58:18.472Z,11.25
2023-04-07T10:59:27.909Z,10.38
2023-04-07T11:00:30.148Z,8.85
2023-04-07T11:01:32.615Z,9.80
2023-04-07T11:02:35.560Z,11.32
2023-04-07T11:03:39.983Z,11.30
2023-04-07T11:04:46.358Z,10.65
2023-04-07T11:05:48.813Z,10.10
2023-04-07T11:06:51.124Z,10.25
2023-04-07T11:07:59.477Z,10.43
2023-04-07T11:09:01.576Z,11.32
2023-04-07T11:10:11.957Z,9.75
2023-04-07T11:11:16.065Z,10.63
2023-04-07T11:12:24.602Z,10.25
2023-04-07T11:13:27.624Z,10.70
2023-04-07T11:14:32.100Z,11.63
2023-04-07T11:15:38.485Z,11.52
2023-04-07T11:16:43.723Z,10.82
2023-04-07T11:17:45.898Z,10.85
2023-04-07T11:18:48.467Z,10.00
2023-04-07T11:19:53.895Z,10.30
2023-04-07T11:20:58.828Z,10.95
2023-04-07T11:22:29.319Z,10.23
2023-04-07T11:23:58.957Z,9.75
2023-04-07T11:25:01.500Z,10.52
2023-04-07T11:26:04.049Z,10.82
2023-04-07T11:27:07.599Z,10.27
2023-04-07T11:28:12.260Z,11.43
2023-04-07T11:29:14.282Z,12.40
2023-04-07T11:30:18.409Z,10.65
2023-04-07T11:31:28.302Z,11.02
2023-04-07T11:32:31.080Z,9.98
2023-04-07T11:33:35.117Z,10.35
2023-04-07T11:34:37.198Z,11.57
2023-04-07T11:35:39.169Z,10.82
2023-04-07T11:36:42.520Z,10.45
2023-04-07T11:37:44.539Z,10.70
2023-04-07T11:38:47.230Z,10.73
2023-04-07T11:39:57.592Z,9.75
2023-04-07T11:41:11.362Z,11.50
2023-04-07T11:42:13.477Z,10.68
2023-04-07T11:43:20.217Z,9.98
2023-04-07T11:44:22.227Z,10.43
2023-04-07T11:45:24.548Z,11.77
2023-04-07T11:46:26.642Z,10.10
2023-04-07T11:47:40.722Z,10.68
2023-04-07T11:48:44.548Z,10.57
2023-04-07T11:49:47.339Z,10.90
2023-04-07T11:50:49.275Z,10.65
2023-04-07T11:51:59.637Z,10.00
2023-04-07T11:53:01.964Z,12.00
2023-04-07T11:54:04.793Z,11.52
2023-04-07T11:55:08.389Z,10.25
2023-04-07T11:56:16.858Z,10.82
2023-04-07T11:57:29.354Z,12.30
2023-04-07T11:58:32.256Z,11.18
2023-04-07T11:59:34.307Z,10.32
2023-04-07T12:00:36.718Z,10.50
2023-04-07T12:01:42.086Z,10.23
2023-04-07T12:02:44.731Z,11.68
2023-04-07T12:04:04.262Z,10.35
2023-04-07T12:05:07.184Z,11.55
2023-04-07T12:07:12.325Z,11.23
2023-04-07T12:08:16.800Z,10.57
2023-04-07T12:09:34.931Z,11.10
2023-04-07T12:10:37.210Z,10.60
2023-04-07T12:11:49.789Z,11.15
2023-04-07T12:12:52.205Z,11.48
2023-04-07T12:13:54.721Z,11.45
2023-04-07T12:14:57.010Z,11.05
2023-04-07T12:16:00.000Z,12.10
2023-04-07T12:17:03.823Z,10.65
2023-04-07T12:18:06.382Z,12.05
2023-04-07T12:19:08.585Z,11.07
2023-04-07T12:20:11.741Z,11.80
2023-04-07T12:21:13.810Z,11.38
2023-04-07T12:22:15.890Z,11.20
2023-04-07T12:23:17.879Z,11.25
2023-04-07T12:24:20.197Z,11.60
2023-04-07T12:25:22.192Z,11.35
2023-04-07T12:26:25.648Z,11.80
2023-04-07T12:27:41.677Z,11.57
2023-04-07T12:28:45.679Z,11.52
2023-04-07T12:29:49.085Z,11.77
2023-04-07T12:30:51.144Z,11.32
2023-04-07T12:31:53.127Z,11.48
2023-04-07T12:32:55.890Z,10.43
2023-04-07T12:33:58.824Z,11.45
2023-04-07T12:36:02.630Z,11.60
2023-04-07T12:37:04.920Z,10.75
2023-04-07T12:38:06.935Z,11.65
2023-04-07T12:39:08.963Z,10.77
2023-04-07T12:40:11.540Z,12.32
2023-04-07T12:41:13.919Z,11.93
2023-04-07T12:42:15.856Z,10.73
2023-04-07T12:43:18.179Z,11.13
2023-04-07T12:44:20.134Z,10.40
2023-04-07T12:45:22.921Z,10.93
2023-04-07T12:46:25.000Z,11.13
2023-04-07T12:47:27.497Z,10.60
2023-04-07T12:48:29.475Z,11.68
2023-04-07T12:49:31.811Z,11.75
2023-04-07T12:50:36.535Z,12.32
2023-04-07T12:51:40.276Z,11.43
2023-04-07T12:52:42.370Z,10.75
2023-04-07T12:53:44.845Z,11.00
2023-04-07T12:54:46.929Z,11.38
2023-04-07T12:55:50.276Z,11.57
2023-04-07T12:56:53.083Z,10.70
2023-04-07T12:57:55.959Z,11.57
2023-04-07T12:58:58.016Z,11.00
2023-04-07T12:59:59.955Z,11.52
2023-04-07T13:01:02.083Z,11.23
2023-04-07T13:02:04.669Z,12.02
2023-04-07T13:03:07.632Z,11.30
2023-04-07T13:04:10.077Z,11.38
2023-04-07T13:05:12.138Z,11.80
2023-04-07T13:06:14.423Z,12.20
2023-04-07T13:07:16.612Z,12.20
2023-04-07T13:08:18.649Z,11.50
2023-04-07T13:09:20.728Z,12.52
2023-04-07T13:10:23.052Z,10.65
2023-04-07T13:11:26.037Z,11.43
2023-04-07T13:12:28.542Z,11.77
2023-04-07T13:13:31.621Z,12.05
2023-04-07T13:14:34.014Z,11.02
2023-04-07T13:15:36.362Z,12.98
2023-04-07T13:16:39.114Z,11.75
2023-04-07T13:17:41.773Z,10.60
2023-04-07T13:18:44.087Z,12.05
2023-04-07T13:19:49.562Z,10.90
2023-04-07T13:21:05.452Z,11.15
2023-04-07T13:22:17.828Z,11.73
2023-04-07T13:23:20.689Z,11.15
2023-04-07T13:24:23.202Z,12.00
2023-04-07T13:25:25.489Z,12.32
2023-04-07T13:26:28.626Z,11.48
2023-04-07T13:27:31.268Z,11.95
2023-04-07T13:28:34.124Z,12.90
2023-04-07T13:30:38.065Z,11.05
2023-04-07T13:31:40.630Z,11.40
2023-04-07T13:32:42.958Z,12.25
2023-04-07T13:33:45.510Z,11.20
2023-04-07T13:34:47.491Z,11.27
2023-04-07T13:35:49.906Z,13.63
2023-04-07T13:36:51.925Z,11.95
2023-04-07T13:37:54.021Z,11.10
2023-04-07T13:38:57.126Z,11.02
2023-04-07T13:39:59.374Z,12.15
2023-04-07T13:41:01.260Z,12.80
2023-04-07T13:42:03.371Z,10.77
2023-04-07T13:43:06.583Z,11.50
2023-04-07T13:44:09.014Z,12.30
2023-04-07T13:45:11.205Z,13.38
2023-04-07T13:46:27.404Z,11.50
2023-04-07T13:47:34.591Z,11.68
2023-04-07T13:48:37.095Z,10.63
2023-04-07T13:49:39.333Z,11.60
2023-04-07T13:50:41.495Z,10.20
2023-04-07T13:51:43.593Z,11.82
2023-04-07T13:52:46.199Z,10.57
2023-04-07T13:53:48.513Z,10.07
2023-04-07T13:54:51.213Z,10.55
2023-04-07T13:55:53.178Z,11.13
2023-04-07T13:56:55.703Z,10.68
2023-04-07T13:57:58.349Z,10.73
2023-04-07T13:59:00.512Z,10.98
2023-04-07T14:00:02.718Z,10.98
2023-04-07T14:01:05.225Z,10.77
2023-04-07T14:02:07.528Z,10.20
2023-04-07T14:03:09.748Z,9.73
2023-04-07T14:04:12.586Z,11.32
2023-04-07T14:06:17.062Z,11.95
2023-04-07T14:07:19.127Z,10.73
2023-04-07T14:08:24.121Z,11.05
2023-04-07T14:09:26.801Z,10.65
2023-04-07T14:10:29.668Z,10.73
2023-04-07T14:12:34.715Z,8.40
2023-04-07T14:13:38.507Z,9.88
2023-04-07T14:14:40.822Z,10.73
2023-04-07T14:15:42.957Z,9.98
2023-04-07T14:16:45.007Z,10.13
2023-04-07T14:17:47.387Z,11.85
2023-04-07T14:18:49.724Z,10.25
2023-04-07T14:19:51.759Z,10.90
2023-04-07T14:20:53.767Z,10.48